Time;durP1;ratioP1;P1;durP2;ratioP2;P2;SDS_P1;SDS_P2;PMS_P1;PMS_P2;Temp;Humidity;BMP_temperature;BMP_pressure;BME280_temperature;BME280_humidity;BME280_pressure;Samples;Min_cycle;Max_cycle;Signal;HPM_P1;HPM_P2
2021/05/17 00:00:23;;;;;;;4.10;0.83;;;12.00;85.70;;;;;;4949303;28;20462;-48
2021/05/17 00:02:54;;;;;;;1.40;0.70;;;11.90;85.90;;;;;;4949193;28;20495;-48
2021/05/17 00:05:23;;;;;;;1.73;1.10;;;11.80;86.00;;;;;;4952695;28;20569;-48
2021/05/17 00:07:51;;;;;;;1.10;1.00;;;11.80;86.30;;;;;;4953285;28;20469;-48
2021/05/17 00:10:21;;;;;;;1.60;1.20;;;11.80;86.20;;;;;;4952803;28;20471;-48
2021/05/17 00:12:48;;;;;;;2.73;0.80;;;11.70;86.10;;;;;;4954784;28;20467;-48
2021/05/17 00:15:18;;;;;;;2.60;0.90;;;11.70;86.10;;;;;;4951455;28;20798;-48
2021/05/17 00:17:47;;;;;;;3.13;0.80;;;11.70;86.10;;;;;;4953234;28;20490;-48
2021/05/17 00:20:17;;;;;;;0.70;0.70;;;11.60;85.90;;;;;;4953802;28;20786;-48
2021/05/17 00:22:45;;;;;;;1.87;0.80;;;11.60;85.90;;;;;;4953581;28;20558;-48
2021/05/17 00:25:15;;;;;;;1.60;1.20;;;11.50;85.90;;;;;;4954860;28;20463;-48
2021/05/17 00:27:43;;;;;;;1.73;1.17;;;11.50;86.00;;;;;;4949687;28;20485;-48
2021/05/17 00:30:11;;;;;;;1.63;1.10;;;11.50;86.10;;;;;;4953079;28;20462;-48
2021/05/17 00:32:40;;;;;;;3.73;1.17;;;11.50;86.10;;;;;;4957606;28;20457;-48
2021/05/17 00:35:09;;;;;;;2.00;1.17;;;11.50;86.20;;;;;;4956168;28;21010;-48
2021/05/17 00:37:37;;;;;;;2.33;1.00;;;11.50;86.30;;;;;;4954760;28;20466;-48
2021/05/17 00:40:06;;;;;;;0.73;0.60;;;11.50;86.40;;;;;;4952894;28;20451;-48
2021/05/17 00:42:35;;;;;;;2.03;0.70;;;11.50;86.40;;;;;;4952640;28;20992;-48
2021/05/17 00:45:09;;;;;;;4.03;0.90;;;11.60;86.00;;;;;;4952878;28;20455;-48
2021/05/17 00:47:40;;;;;;;1.20;0.90;;;11.60;85.20;;;;;;4953562;28;20471;-48
2021/05/17 00:50:11;;;;;;;2.50;0.60;;;11.60;84.70;;;;;;4951100;28;20447;-48
2021/05/17 00:52:40;;;;;;;1.53;0.80;;;11.50;85.10;;;;;;4955131;28;21023;-48
2021/05/17 00:55:10;;;;;;;3.90;0.90;;;11.50;85.30;;;;;;4955068;28;20800;-48
2021/05/17 00:57:39;;;;;;;0.93;0.73;;;11.40;85.70;;;;;;4956377;28;20478;-48
2021/05/17 01:00:10;;;;;;;2.00;1.20;;;11.40;86.10;;;;;;4953409;28;20467;-48
2021/05/17 01:02:39;;;;;;;1.90;0.77;;;11.40;86.10;;;;;;4951561;28;20574;-48
2021/05/17 01:05:09;;;;;;;1.80;0.90;;;11.40;86.50;;;;;;4956435;28;20515;-48
2021/05/17 01:07:38;;;;;;;9.40;1.53;;;11.40;86.00;;;;;;4949761;28;20471;-48
2021/05/17 01:10:06;;;;;;;1.70;0.90;;;11.40;86.40;;;;;;4956923;28;20455;-48
2021/05/17 01:12:34;;;;;;;1.10;0.70;;;11.30;86.50;;;;;;4953175;28;20459;-49
2021/05/17 01:15:03;;;;;;;0.70;0.70;;;11.30;86.80;;;;;;4950486;28;20458;-49
2021/05/17 01:17:34;;;;;;;0.70;0.70;;;11.30;87.30;;;;;;4950964;28;20490;-49
2021/05/17 01:20:18;;;;;;;2.50;0.80;;;11.30;87.70;;;;;;4954677;28;20526;-49
2021/05/17 01:23:31;;;;;;;1.13;0.70;;;11.30;87.70;;;;;;4953823;28;20487;-48
2021/05/17 01:25:53;;;;;;;1.27;0.80;;;11.30;87.80;;;;;;4955268;28;20878;-49
2021/05/17 01:28:24;;;;;;;0.60;0.60;;;11.40;87.40;;;;;;4971916;28;20458;-49
2021/05/17 01:30:59;;;;;;;2.20;0.80;;;11.40;87.80;;;;;;4955360;28;20459;-48
2021/05/17 01:33:32;;;;;;;0.80;0.70;;;11.40;87.70;;;;;;4954101;28;20459;-48
2021/05/17 01:36:01;;;;;;;1.07;0.70;;;11.30;87.90;;;;;;4955504;28;20479;-48
2021/05/17 01:38:29;;;;;;;1.27;0.73;;;11.40;88.00;;;;;;4952237;28;20463;-49
2021/05/17 01:40:58;;;;;;;1.80;0.60;;;11.40;87.70;;;;;;4951767;28;20463;-48
2021/05/17 01:43:27;;;;;;;1.77;0.80;;;11.40;87.90;;;;;;4956433;28;21131;-48
2021/05/17 01:46:00;;;;;;;1.97;0.70;;;11.40;88.20;;;;;;4952619;28;20465;-49
2021/05/17 01:48:33;;;;;;;0.80;0.60;;;11.40;88.10;;;;;;4954093;28;20715;-48
2021/05/17 01:51:04;;;;;;;2.53;0.93;;;11.40;88.30;;;;;;4954876;28;20487;-48
2021/05/17 01:53:35;;;;;;;1.07;0.67;;;11.40;88.40;;;;;;4955619;28;20459;-48
2021/05/17 01:56:05;;;;;;;1.43;0.87;;;11.40;88.40;;;;;;4952462;28;20478;-48
2021/05/17 01:58:35;;;;;;;3.70;1.00;;;11.50;88.20;;;;;;4965651;28;20466;-48
2021/05/17 02:01:06;;;;;;;0.73;0.60;;;11.50;88.10;;;;;;4956190;28;20470;-48
2021/05/17 02:03:35;;;;;;;0.70;0.50;;;11.50;87.90;;;;;;4951596;28;20862;-48
2021/05/17 02:06:05;;;;;;;0.73;0.70;;;11.50;87.90;;;;;;4953057;28;20741;-49
2021/05/17 02:08:34;;;;;;;0.87;0.70;;;11.50;88.00;;;;;;4953420;28;20447;-48
2021/05/17 02:11:01;;;;;;;1.10;0.80;;;11.40;88.10;;;;;;4956074;28;20463;-48
2021/05/17 02:13:30;;;;;;;1.73;0.80;;;11.40;88.20;;;;;;4953367;28;20463;-48
2021/05/17 02:15:58;;;;;;;2.30;1.10;;;11.40;88.30;;;;;;4953214;28;20463;-48
2021/05/17 02:18:30;;;;;;;1.73;0.70;;;11.40;88.20;;;;;;4952547;28;20991;-49
2021/05/17 02:21:01;;;;;;;0.60;0.40;;;11.40;88.20;;;;;;4951270;28;20470;-48
2021/05/17 02:23:31;;;;;;;1.60;0.43;;;11.40;88.30;;;;;;4952558;28;21035;-48
2021/05/17 02:25:59;;;;;;;0.87;0.70;;;11.40;88.30;;;;;;4950960;28;20459;-48
2021/05/17 02:28:27;;;;;;;0.53;0.50;;;11.40;88.30;;;;;;4951485;28;20960;-48
2021/05/17 02:30:56;;;;;;;1.00;0.70;;;11.40;88.40;;;;;;4950877;28;20995;-48
2021/05/17 02:33:24;;;;;;;1.00;0.80;;;11.40;88.40;;;;;;4951880;28;20830;-49
2021/05/17 02:35:52;;;;;;;2.37;1.33;;;11.40;88.30;;;;;;4950805;28;20490;-48
2021/05/17 02:38:21;;;;;;;0.80;0.80;;;11.30;88.20;;;;;;4952759;28;20462;-48
2021/05/17 02:40:50;;;;;;;1.20;0.80;;;11.30;88.20;;;;;;4953030;28;20833;-48
2021/05/17 02:43:22;;;;;;;0.90;0.77;;;11.30;88.10;;;;;;4951293;28;20839;-48
2021/05/17 02:45:50;;;;;;;1.27;0.77;;;11.30;88.10;;;;;;4954814;28;20971;-48
2021/05/17 02:48:20;;;;;;;0.97;0.80;;;11.30;88.10;;;;;;4951201;28;22131;-48
2021/05/17 02:50:48;;;;;;;1.13;1.03;;;11.30;88.20;;;;;;4947594;28;20491;-48
2021/05/17 02:53:38;;;;;;;1.10;1.00;;;11.30;88.20;;;;;;4955848;28;20829;-48
2021/05/17 02:56:33;;;;;;;2.23;1.37;;;11.30;88.20;;;;;;4949571;28;20455;-48
2021/05/17 02:59:04;;;;;;;1.57;1.30;;;11.30;88.20;;;;;;4942147;28;20466;-48
2021/05/17 03:01:39;;;;;;;1.17;1.00;;;11.20;88.30;;;;;;4952836;28;20459;-49
2021/05/17 03:04:12;;;;;;;1.30;1.20;;;11.20;88.30;;;;;;4949192;28;20459;-48
2021/05/17 03:06:42;;;;;;;1.40;1.30;;;11.20;88.30;;;;;;4950153;28;20869;-48
2021/05/17 03:09:11;;;;;;;1.70;1.37;;;11.20;88.30;;;;;;4954041;28;20469;-49
2021/05/17 03:11:45;;;;;;;1.57;1.17;;;11.20;88.30;;;;;;4948626;28;20959;-48
2021/05/17 03:14:17;;;;;;;1.53;1.43;;;11.20;88.30;;;;;;4953826;28;20458;-48
2021/05/17 03:16:51;;;;;;;1.43;1.33;;;11.20;88.30;;;;;;4949270;28;20466;-48
2021/05/17 03:19:21;;;;;;;2.60;1.70;;;11.20;88.20;;;;;;4951609;28;20466;-48
2021/05/17 03:21:53;;;;;;;1.80;1.67;;;11.20;88.30;;;;;;4950468;28;20852;-48
2021/05/17 03:24:24;;;;;;;2.00;1.90;;;11.20;88.40;;;;;;4950892;28;20836;-48
2021/05/17 03:26:53;;;;;;;2.47;2.10;;;11.20;88.40;;;;;;4954143;28;20964;-48
2021/05/17 03:29:22;;;;;;;2.23;1.80;;;11.20;88.50;;;;;;4952571;28;20458;-49
2021/05/17 03:31:50;;;;;;;2.60;1.73;;;11.20;88.60;;;;;;4953231;28;20463;-48
2021/05/17 03:34:19;;;;;;;1.70;1.50;;;11.20;88.60;;;;;;4956733;28;20800;-48
2021/05/17 03:36:47;;;;;;;2.37;1.73;;;11.20;88.60;;;;;;4951437;28;20463;-48
2021/05/17 03:39:15;;;;;;;2.83;2.00;;;11.20;88.60;;;;;;4957494;28;20470;-49
2021/05/17 03:41:44;;;;;;;4.10;1.90;;;11.20;88.60;;;;;;4957047;28;20459;-49
2021/05/17 03:44:12;;;;;;;2.40;2.20;;;11.20;88.70;;;;;;4958961;28;20458;-48
2021/05/17 03:46:40;;;;;;;2.63;2.30;;;11.20;88.80;;;;;;4957911;28;20455;-48
2021/05/17 03:49:08;;;;;;;2.50;2.30;;;11.20;88.90;;;;;;4956098;28;20473;-48
2021/05/17 03:51:36;;;;;;;1.87;1.73;;;11.20;88.90;;;;;;4953005;28;20502;-48
2021/05/17 03:54:04;;;;;;;2.37;2.10;;;11.30;88.90;;;;;;4955603;28;20497;-48
2021/05/17 03:56:32;;;;;;;3.63;3.03;;;11.30;89.00;;;;;;4955700;28;20466;-49
2021/05/17 03:59:00;;;;;;;5.43;3.53;;;11.30;89.00;;;;;;4955997;28;20487;-48
2021/05/17 04:01:28;;;;;;;2.83;2.57;;;11.30;89.00;;;;;;4952490;28;20490;-48
2021/05/17 04:03:57;;;;;;;6.50;2.67;;;11.30;89.10;;;;;;4957645;28;21192;-48
2021/05/17 04:06:31;;;;;;;3.97;2.77;;;11.30;89.10;;;;;;4951063;28;20473;-48
2021/05/17 04:14:32;;;;;;;3.00;2.70;;;11.30;89.30;;;;;;4956015;28;20459;-48
2021/05/17 04:17:00;;;;;;;2.90;2.70;;;11.30;89.20;;;;;;4955639;28;20494;-49
2021/05/17 04:19:29;;;;;;;3.73;3.07;;;11.30;89.30;;;;;;4952747;28;20836;-48
2021/05/17 04:21:59;;;;;;;3.03;2.80;;;11.40;89.40;;;;;;4955206;28;20481;-48
2021/05/17 04:24:28;;;;;;;2.90;2.50;;;11.40;89.40;;;;;;4954775;28;20462;-49
2021/05/17 04:26:56;;;;;;;4.03;2.87;;;11.40;89.40;;;;;;4954942;28;20467;-49
2021/05/17 04:29:25;;;;;;;2.53;2.33;;;11.40;89.50;;;;;;4954401;28;20490;-48
2021/05/17 04:31:53;;;;;;;3.53;3.23;;;11.40;89.50;;;;;;4955129;28;20467;-48
2021/05/17 04:34:21;;;;;;;3.40;2.97;;;11.50;89.40;;;;;;4953472;28;20459;-48
2021/05/17 04:36:49;;;;;;;2.93;2.70;;;11.50;89.30;;;;;;4951380;28;20842;-48
2021/05/17 04:39:17;;;;;;;3.50;3.17;;;11.50;89.30;;;;;;4956450;28;20458;-48
2021/05/17 04:41:45;;;;;;;2.63;2.43;;;11.50;89.30;;;;;;4952639;28;20967;-48
2021/05/17 04:44:13;;;;;;;3.30;2.73;;;11.50;89.30;;;;;;4956013;28;20490;-48
2021/05/17 04:46:41;;;;;;;2.57;2.37;;;11.60;89.20;;;;;;4953807;28;20777;-48
2021/05/17 04:49:09;;;;;;;5.60;2.47;;;11.60;89.20;;;;;;4951807;28;20463;-48
2021/05/17 04:51:37;;;;;;;5.30;2.67;;;11.70;89.20;;;;;;4954062;28;20482;-48
2021/05/17 04:54:06;;;;;;;2.57;2.37;;;11.70;88.80;;;;;;4953479;28;20459;-48
2021/05/17 04:56:34;;;;;;;4.17;2.67;;;11.70;89.00;;;;;;4952576;28;20459;-48
2021/05/17 04:59:02;;;;;;;3.03;2.30;;;11.70;89.20;;;;;;4953287;28;20456;-48
2021/05/17 05:01:30;;;;;;;3.00;2.70;;;11.70;89.30;;;;;;4954657;28;20683;-48
2021/05/17 05:04:01;;;;;;;3.83;2.93;;;11.70;89.30;;;;;;4956156;28;20565;-48
2021/05/17 05:06:29;;;;;;;3.23;2.93;;;11.70;89.40;;;;;;4951867;28;20447;-48
2021/05/17 05:08:57;;;;;;;2.80;2.60;;;11.80;89.50;;;;;;4958524;28;20470;-48
2021/05/17 05:11:25;;;;;;;2.93;2.73;;;11.80;89.40;;;;;;4953392;28;20804;-48
2021/05/17 05:13:53;;;;;;;3.77;3.47;;;11.90;89.20;;;;;;4953934;28;20467;-48
2021/05/17 05:16:21;;;;;;;3.33;2.30;;;11.90;89.30;;;;;;4955121;28;20456;-48
2021/05/17 05:18:49;;;;;;;3.33;2.67;;;11.90;89.40;;;;;;4953997;28;20467;-48
2021/05/17 05:21:18;;;;;;;3.93;3.50;;;12.00;89.40;;;;;;4955808;28;20453;-48
2021/05/17 05:23:47;;;;;;;2.67;2.47;;;12.00;89.00;;;;;;4956041;28;20514;-48
2021/05/17 05:29:01;;;;;;;2.37;2.20;;;12.10;88.50;;;;;;4953942;28;20976;-48
2021/05/17 05:34:16;;;;;;;2.33;1.80;;;12.10;87.70;;;;;;4954337;28;20469;-48
2021/05/17 05:36:44;;;;;;;2.73;1.70;;;12.10;87.70;;;;;;4950701;28;20463;-48
2021/05/17 05:39:12;;;;;;;1.70;1.60;;;12.10;87.60;;;;;;4955497;28;20453;-48
2021/05/17 05:41:41;;;;;;;4.30;1.87;;;12.10;87.30;;;;;;4953499;28;20945;-48
2021/05/17 05:44:08;;;;;;;2.20;2.00;;;12.10;87.60;;;;;;4951391;28;20499;-48
2021/05/17 05:46:37;;;;;;;2.23;2.13;;;12.10;88.00;;;;;;4955605;28;20534;-48
2021/05/17 05:49:05;;;;;;;3.00;2.13;;;12.10;87.40;;;;;;4952797;28;21054;-48
2021/05/17 05:51:33;;;;;;;2.60;2.27;;;12.20;87.20;;;;;;4952679;28;20495;-48
2021/05/17 05:54:01;;;;;;;4.00;2.00;;;12.10;87.60;;;;;;4952241;28;20482;-48
2021/05/17 05:56:30;;;;;;;2.07;1.97;;;12.20;87.90;;;;;;4951736;28;20466;-48
2021/05/17 05:58:58;;;;;;;2.50;1.57;;;12.20;88.10;;;;;;4955009;28;20463;-48
2021/05/17 06:01:26;;;;;;;2.33;2.13;;;12.20;88.20;;;;;;4951155;28;20463;-48
2021/05/17 06:03:54;;;;;;;2.63;2.43;;;12.30;87.90;;;;;;4953842;28;20491;-48
2021/05/17 06:06:22;;;;;;;2.17;1.60;;;12.30;88.00;;;;;;4954885;28;20446;-48
2021/05/17 06:08:51;;;;;;;1.97;1.67;;;12.30;87.90;;;;;;4951757;28;21044;-48
2021/05/17 06:11:19;;;;;;;3.00;1.87;;;12.40;88.00;;;;;;4949522;28;20466;-48
2021/05/17 06:13:49;;;;;;;1.90;1.80;;;12.50;87.40;;;;;;4950516;28;20463;-48
2021/05/17 06:16:17;;;;;;;4.10;2.60;;;12.50;87.30;;;;;;4947200;28;20971;-48
2021/05/17 06:18:45;;;;;;;2.80;2.03;;;12.50;87.40;;;;;;4950303;28;21366;-48
2021/05/17 06:21:13;;;;;;;2.03;1.83;;;12.50;87.50;;;;;;4953280;28;20484;-48
2021/05/17 06:23:42;;;;;;;3.00;2.60;;;12.60;87.60;;;;;;4953912;28;20526;-48
2021/05/17 06:26:11;;;;;;;1.93;1.83;;;12.60;87.60;;;;;;4953154;28;20483;-48
2021/05/17 06:28:42;;;;;;;2.80;1.90;;;12.70;87.60;;;;;;4949483;28;20459;-48
2021/05/17 06:31:12;;;;;;;2.43;2.20;;;12.70;87.70;;;;;;4953393;28;20455;-48
2021/05/17 06:33:43;;;;;;;2.10;1.87;;;12.80;87.70;;;;;;4953186;28;20851;-48
2021/05/17 06:36:12;;;;;;;1.93;1.70;;;12.80;87.70;;;;;;4948722;28;20979;-48
2021/05/17 06:38:40;;;;;;;3.37;2.47;;;12.80;87.60;;;;;;4951629;28;20478;-48
2021/05/17 06:41:09;;;;;;;4.33;1.80;;;12.90;87.80;;;;;;4948690;28;20566;-48
2021/05/17 06:43:39;;;;;;;2.10;1.47;;;13.00;87.20;;;;;;4952202;28;20486;-49
2021/05/17 06:46:09;;;;;;;3.80;1.53;;;13.00;86.00;;;;;;4947838;28;20478;-48
2021/05/17 06:48:44;;;;;;;1.83;1.40;;;13.10;85.90;;;;;;4950397;28;20820;-48
2021/05/17 06:51:18;;;;;;;1.70;1.33;;;13.10;85.20;;;;;;4951324;28;20854;-48
2021/05/17 06:53:51;;;;;;;3.17;1.97;;;13.20;83.70;;;;;;4952035;28;20474;-48
2021/05/17 06:56:27;;;;;;;2.20;1.10;;;13.20;83.70;;;;;;4944768;28;20960;-48
2021/05/17 06:58:59;;;;;;;3.67;1.53;;;13.20;83.40;;;;;;4950083;28;20473;-48
2021/05/17 07:01:29;;;;;;;2.30;1.37;;;13.20;83.90;;;;;;4948386;28;20494;-48
2021/05/17 07:03:58;;;;;;;2.63;1.53;;;13.20;84.20;;;;;;4950928;28;20490;-48
2021/05/17 07:06:28;;;;;;;3.40;1.77;;;13.20;84.50;;;;;;4952721;28;20795;-48
2021/05/17 07:12:03;;;;;;;2.17;1.53;;;13.40;84.50;;;;;;4951224;28;20470;-48
2021/05/17 07:14:31;;;;;;;3.40;1.47;;;13.50;84.10;;;;;;4950225;28;20462;-48
2021/05/17 07:16:59;;;;;;;2.53;1.27;;;13.70;81.30;;;;;;4951625;28;20543;-48
2021/05/17 07:19:28;;;;;;;2.93;2.63;;;13.70;80.30;;;;;;4950121;28;20459;-48
2021/05/17 07:24:42;;;;;;;4.60;1.57;;;13.70;80.80;;;;;;4951638;28;20491;-48
2021/05/17 07:27:11;;;;;;;4.77;1.87;;;13.70;81.00;;;;;;4950945;28;20463;-48
2021/05/17 07:29:39;;;;;;;2.60;2.10;;;13.80;82.20;;;;;;4951204;28;20810;-48
2021/05/17 07:32:10;;;;;;;1.83;1.10;;;13.90;81.20;;;;;;4953562;28;20479;-48
2021/05/17 07:34:39;;;;;;;1.70;1.23;;;14.00;79.30;;;;;;4949654;28;20470;-48
2021/05/17 07:37:08;;;;;;;2.50;1.20;;;14.10;79.80;;;;;;4947317;28;20904;-48
2021/05/17 07:39:36;;;;;;;1.30;1.00;;;14.30;78.70;;;;;;4954958;28;20477;-48
2021/05/17 07:42:05;;;;;;;2.30;1.37;;;14.30;78.60;;;;;;4952552;28;20930;-48
2021/05/17 07:44:33;;;;;;;3.87;1.30;;;14.40;77.40;;;;;;4950928;28;20518;-48
2021/05/17 07:47:02;;;;;;;2.40;1.50;;;14.50;76.70;;;;;;4955513;28;20473;-48
2021/05/17 07:52:04;;;;;;;3.40;1.70;;;14.40;77.00;;;;;;4950803;28;20466;-48
2021/05/17 07:54:32;;;;;;;1.10;0.90;;;14.40;76.20;;;;;;4952267;28;20466;-48
2021/05/17 07:57:00;;;;;;;4.53;1.57;;;14.40;74.90;;;;;;4951549;28;20980;-48
2021/05/17 07:59:30;;;;;;;1.30;1.20;;;14.30;75.60;;;;;;4953068;28;20488;-48
2021/05/17 08:01:58;;;;;;;4.20;1.77;;;14.30;76.80;;;;;;4952960;28;20463;-48
2021/05/17 08:04:29;;;;;;;16.03;10.57;;;14.40;75.80;;;;;;4949744;28;20483;-48
2021/05/17 08:06:57;;;;;;;3.20;2.30;;;14.40;75.50;;;;;;4953842;28;20516;-48
2021/05/17 08:09:25;;;;;;;2.30;1.40;;;14.50;74.50;;;;;;4951785;28;20513;-48
2021/05/17 08:11:53;;;;;;;2.97;1.17;;;14.60;74.20;;;;;;4952092;28;20467;-48
2021/05/17 08:14:21;;;;;;;2.30;0.97;;;14.60;74.90;;;;;;4951364;28;20462;-48
2021/05/17 08:16:49;;;;;;;3.93;1.40;;;14.70;73.50;;;;;;4955177;28;20481;-48
2021/05/17 08:19:17;;;;;;;2.33;1.40;;;14.70;72.60;;;;;;4952486;28;20471;-48
2021/05/17 08:21:45;;;;;;;1.80;0.80;;;14.70;73.00;;;;;;4958082;28;20463;-48
2021/05/17 08:24:13;;;;;;;3.70;1.10;;;14.80;72.80;;;;;;4956053;28;20495;-48
2021/05/17 08:26:41;;;;;;;1.30;0.90;;;14.80;71.80;;;;;;4953410;28;20471;-48
2021/05/17 08:29:09;;;;;;;2.10;1.17;;;14.80;72.80;;;;;;4956202;28;20523;-48
2021/05/17 08:31:38;;;;;;;1.63;0.83;;;14.80;72.40;;;;;;4955716;28;20462;-48
2021/05/17 08:34:06;;;;;;;1.37;1.27;;;14.90;73.00;;;;;;4952263;28;20885;-48
2021/05/17 08:36:34;;;;;;;1.67;0.80;;;14.90;71.90;;;;;;4958240;28;20967;-48
2021/05/17 08:39:05;;;;;;;2.10;1.00;;;15.00;71.70;;;;;;4960176;28;20475;-48
2021/05/17 08:41:37;;;;;;;2.00;0.73;;;15.10;70.60;;;;;;4959183;28;20831;-48
2021/05/17 08:44:06;;;;;;;1.67;0.77;;;15.20;70.70;;;;;;4958397;28;20483;-48
2021/05/17 08:46:34;;;;;;;2.13;0.80;;;15.30;70.70;;;;;;4960248;28;20454;-48
2021/05/17 08:49:03;;;;;;;1.23;0.80;;;15.30;70.50;;;;;;4959395;28;20497;-48
2021/05/17 08:51:34;;;;;;;3.10;0.70;;;15.30;70.40;;;;;;4954852;28;20491;-48
2021/05/17 08:54:05;;;;;;;0.80;0.80;;;15.40;71.40;;;;;;4958103;28;20876;-48
2021/05/17 08:56:34;;;;;;;2.23;1.03;;;15.40;69.60;;;;;;4953770;28;20475;-48
2021/05/17 08:59:05;;;;;;;2.10;1.47;;;15.40;70.00;;;;;;4955665;28;20442;-48
2021/05/17 09:01:33;;;;;;;1.90;1.50;;;15.30;70.50;;;;;;4953639;28;20473;-48
2021/05/17 09:04:10;;;;;;;2.00;1.23;;;15.30;71.10;;;;;;4955169;28;20498;-48
2021/05/17 09:06:42;;;;;;;1.33;1.20;;;15.20;71.50;;;;;;4958182;28;20469;-48
2021/05/17 09:09:31;;;;;;;1.37;1.20;;;15.10;72.00;;;;;;4951614;28;20518;-45
2021/05/17 09:12:11;;;;;;;1.50;1.13;;;15.00;73.00;;;;;;4956502;28;20455;-45
2021/05/17 09:14:41;;;;;;;1.93;1.50;;;14.90;73.40;;;;;;4955669;28;20551;-45
2021/05/17 09:17:10;;;;;;;1.53;1.10;;;14.90;74.20;;;;;;4957478;28;20462;-46
2021/05/17 09:19:41;;;;;;;2.23;1.40;;;14.80;72.20;;;;;;4956949;28;20539;-46
2021/05/17 09:22:12;;;;;;;1.40;1.30;;;14.90;73.70;;;;;;4949549;28;20957;-45
2021/05/17 09:25:01;;;;;;;2.30;1.20;;;15.10;70.90;;;;;;4954346;28;20505;-45
2021/05/17 09:27:31;;;;;;;1.93;1.70;;;15.20;71.60;;;;;;4967456;28;20494;-45
2021/05/17 09:30:04;;;;;;;1.20;1.10;;;15.20;71.80;;;;;;4953964;28;20455;-46
2021/05/17 09:32:36;;;;;;;2.90;1.00;;;15.20;71.80;;;;;;4954279;28;20451;-45
2021/05/17 09:35:20;;;;;;;1.80;0.90;;;15.20;72.00;;;;;;4954166;28;20470;-46
2021/05/17 09:37:53;;;;;;;1.47;0.70;;;15.50;71.80;;;;;;4954213;28;20510;-46
2021/05/17 09:40:26;;;;;;;1.90;0.70;;;16.20;68.40;;;;;;4952865;28;20470;-45
2021/05/17 09:43:08;;;;;;;0.70;0.70;;;16.50;65.80;;;;;;4954542;28;20470;-46
2021/05/17 09:45:45;;;;;;;5.70;0.90;;;16.40;64.90;;;;;;4949568;28;20458;-45
2021/05/17 09:48:14;;;;;;;0.83;0.77;;;16.20;66.00;;;;;;4951935;28;20459;-46
2021/05/17 09:51:00;;;;;;;4.10;0.60;;;15.90;66.70;;;;;;4951648;28;20459;-45
2021/05/17 09:53:41;;;;;;;1.57;0.80;;;15.70;67.50;;;;;;4951857;28;20459;-45
2021/05/17 09:56:19;;;;;;;2.70;1.23;;;15.50;67.50;;;;;;4953968;28;20442;-45
2021/05/17 09:58:54;;;;;;;1.47;1.13;;;15.40;69.90;;;;;;4946439;28;20865;-45
2021/05/17 10:01:29;;;;;;;1.30;1.20;;;15.40;71.90;;;;;;4949767;28;20462;-46
2021/05/17 10:04:05;;;;;;;1.53;1.20;;;15.50;72.20;;;;;;4947508;28;20558;-45
2021/05/17 10:06:33;;;;;;;2.50;1.50;;;15.70;71.70;;;;;;4951552;28;20853;-46
2021/05/17 10:09:03;;;;;;;1.90;1.27;;;15.90;70.70;;;;;;4949416;28;21199;-45
2021/05/17 10:11:31;;;;;;;2.07;1.20;;;16.30;70.40;;;;;;4952452;28;20460;-45
2021/05/17 10:13:59;;;;;;;3.37;1.03;;;16.50;69.30;;;;;;4952828;28;20856;-45
2021/05/17 10:16:27;;;;;;;1.10;1.00;;;16.70;66.40;;;;;;4952175;28;20475;-45
2021/05/17 10:18:59;;;;;;;2.20;0.70;;;16.90;65.90;;;;;;4948832;28;20839;-45
2021/05/17 10:21:27;;;;;;;2.23;1.10;;;17.00;65.90;;;;;;4952046;28;20468;-45
2021/05/17 10:23:55;;;;;;;2.07;1.17;;;17.20;66.20;;;;;;4955481;28;20494;-45
2021/05/17 10:26:25;;;;;;;3.07;0.97;;;17.30;64.80;;;;;;4951661;28;20513;-45
2021/05/17 10:29:01;;;;;;;2.50;1.03;;;17.30;65.20;;;;;;4954009;28;20478;-45
2021/05/17 10:31:30;;;;;;;1.57;0.90;;;17.50;64.80;;;;;;4953938;28;20463;-46
2021/05/17 10:34:02;;;;;;;1.47;1.13;;;17.70;64.40;;;;;;4951239;28;20882;-43
2021/05/17 10:37:02;;;;;;;2.07;0.93;;;17.70;64.90;;;;;;4953687;28;20455;-45
2021/05/17 10:39:40;;;;;;;0.80;0.70;;;17.70;64.80;;;;;;4954255;28;20800;-46
2021/05/17 10:48:25;;;;;;;1.47;0.80;;;17.50;64.50;;;;;;4954820;28;20463;-45
2021/05/17 10:51:30;;;;;;;1.47;1.00;;;17.30;65.40;;;;;;4948815;28;20486;-45
2021/05/17 10:53:58;;;;;;;2.20;0.77;;;17.10;66.70;;;;;;4947705;28;20960;-44
2021/05/17 10:57:12;;;;;;;1.47;1.00;;;17.00;66.30;;;;;;4952691;28;20602;-44
2021/05/17 11:02:34;;;;;;;1.80;0.70;;;16.90;68.00;;;;;;4949876;28;20455;-45
2021/05/17 11:05:21;;;;;;;2.17;0.70;;;17.00;67.20;;;;;;4953464;28;20512;-44
2021/05/17 11:07:53;;;;;;;0.80;0.70;;;17.10;66.80;;;;;;4951749;28;20460;-45
2021/05/17 11:10:25;;;;;;;2.20;0.90;;;17.20;67.00;;;;;;4947969;28;20459;-45
2021/05/17 11:12:56;;;;;;;0.80;0.43;;;17.30;66.00;;;;;;4946904;28;21067;-44
2021/05/17 11:15:54;;;;;;;1.07;0.67;;;17.40;66.50;;;;;;4950484;28;21018;-44
2021/05/17 11:18:42;;;;;;;0.80;0.70;;;17.40;64.20;;;;;;4950614;28;20941;-44
2021/05/17 11:21:21;;;;;;;0.80;0.80;;;17.30;64.80;;;;;;4952196;28;20460;-44
2021/05/17 11:23:58;;;;;;;2.47;0.83;;;17.20;65.50;;;;;;4949767;28;20534;-44
2021/05/17 11:26:30;;;;;;;2.90;0.77;;;17.00;65.60;;;;;;4950649;28;20454;-44
2021/05/17 11:29:01;;;;;;;3.60;0.70;;;16.90;66.40;;;;;;4952307;28;20743;-44
2021/05/17 11:34:03;;;;;;;0.97;0.70;;;16.90;67.50;;;;;;4946533;28;20498;-44
2021/05/17 11:36:54;;;;;;;0.93;0.50;;;16.90;67.60;;;;;;4950186;28;20999;-44
2021/05/17 11:39:34;;;;;;;1.63;0.40;;;16.80;67.80;;;;;;4946967;28;20466;-45
2021/05/17 11:42:11;;;;;;;0.90;0.40;;;16.60;67.00;;;;;;4947016;28;20490;-45
2021/05/17 11:44:48;;;;;;;0.53;0.53;;;16.50;67.90;;;;;;4944074;28;20998;-46
2021/05/17 11:47:25;;;;;;;1.90;0.40;;;16.40;68.50;;;;;;4940695;28;20471;-46
2021/05/17 11:49:55;;;;;;;0.63;0.40;;;16.40;68.80;;;;;;4945643;28;20480;-46
2021/05/17 11:52:29;;;;;;;1.53;0.70;;;16.40;69.10;;;;;;4951939;28;20485;-46
2021/05/17 11:54:59;;;;;;;1.80;0.70;;;16.50;68.70;;;;;;4956077;28;20458;-46
2021/05/17 11:57:37;;;;;;;2.13;0.60;;;16.70;68.30;;;;;;4957299;28;20477;-46
2021/05/17 12:00:08;;;;;;;1.70;0.60;;;16.90;68.00;;;;;;4957813;28;20484;-46
2021/05/17 12:03:09;;;;;;;3.97;0.70;;;17.10;67.00;;;;;;4952458;28;20470;-46
2021/05/17 12:05:37;;;;;;;0.70;0.63;;;17.30;67.20;;;;;;4956242;28;20525;-46
2021/05/17 12:08:05;;;;;;;1.00;0.50;;;17.30;66.10;;;;;;4956335;28;20807;-46
2021/05/17 12:10:39;;;;;;;2.00;0.73;;;17.20;67.40;;;;;;4952079;28;20454;-46
2021/05/17 12:13:14;;;;;;;4.27;0.93;;;17.10;69.10;;;;;;4957139;28;20454;-46
2021/05/17 12:15:41;;;;;;;1.67;0.70;;;16.90;68.70;;;;;;4957992;28;20868;-46
2021/05/17 12:18:11;;;;;;;1.87;0.77;;;16.60;70.50;;;;;;4949975;28;20451;-46
2021/05/17 12:20:39;;;;;;;1.00;0.70;;;16.40;72.20;;;;;;4953546;28;20490;-46
2021/05/17 12:23:07;;;;;;;2.20;0.53;;;16.20;73.90;;;;;;4953256;28;20458;-46
2021/05/17 12:25:36;;;;;;;1.87;0.60;;;16.10;76.20;;;;;;4957085;28;21023;-46
2021/05/17 12:28:04;;;;;;;0.90;0.50;;;16.00;77.30;;;;;;4955757;28;20454;-46
2021/05/17 12:30:34;;;;;;;0.90;0.70;;;16.00;77.60;;;;;;4954861;28;20529;-46
2021/05/17 12:33:04;;;;;;;0.83;0.83;;;16.00;79.30;;;;;;4953050;28;20462;-46
2021/05/17 12:35:36;;;;;;;2.13;0.60;;;16.00;76.90;;;;;;4953643;28;20475;-47
2021/05/17 12:38:12;;;;;;;1.23;0.60;;;16.00;77.10;;;;;;4953503;28;20462;-46
2021/05/17 12:40:50;;;;;;;1.13;0.60;;;16.00;76.90;;;;;;4948538;28;20489;-46
2021/05/17 12:43:20;;;;;;;1.27;0.60;;;16.10;76.30;;;;;;4957707;28;20505;-46
2021/05/17 12:45:48;;;;;;;1.20;0.70;;;16.10;75.10;;;;;;4954316;28;20544;-46
2021/05/17 12:48:18;;;;;;;0.70;0.40;;;16.20;75.10;;;;;;4956038;28;20812;-46
2021/05/17 12:50:52;;;;;;;2.10;0.60;;;16.30;73.10;;;;;;4955531;28;20785;-46
2021/05/17 12:53:23;;;;;;;0.60;0.60;;;16.50;72.80;;;;;;4954796;28;20445;-46
2021/05/17 12:55:56;;;;;;;0.87;0.50;;;16.60;72.40;;;;;;4958850;28;20450;-46
2021/05/17 12:58:36;;;;;;;0.90;0.47;;;16.80;70.90;;;;;;4952619;28;20987;-46
2021/05/17 13:01:16;;;;;;;0.60;0.60;;;16.90;71.40;;;;;;4954870;28;20495;-46
2021/05/17 13:03:46;;;;;;;1.53;0.80;;;17.00;69.00;;;;;;4954225;28;20462;-46
2021/05/17 13:06:22;;;;;;;2.50;0.67;;;17.00;68.90;;;;;;4955750;28;20490;-46
2021/05/17 13:08:52;;;;;;;0.80;0.50;;;17.10;68.80;;;;;;4956691;28;20469;-46
2021/05/17 13:11:22;;;;;;;0.90;0.50;;;17.10;67.10;;;;;;4958156;28;20473;-46
2021/05/17 13:13:52;;;;;;;2.00;0.53;;;17.10;67.10;;;;;;4971774;28;20463;-46
2021/05/17 13:16:31;;;;;;;1.00;0.50;;;17.00;67.50;;;;;;4951863;28;20952;-46
2021/05/17 13:31:00;;;;;;;1.27;0.53;;;16.50;70.20;;;;;;4951403;28;20462;-46
2021/05/17 13:33:44;;;;;;;1.10;0.80;;;16.30;71.90;;;;;;4954874;28;20447;-46
2021/05/17 13:36:21;;;;;;;1.70;0.50;;;16.10;73.40;;;;;;4951486;28;20466;-46
2021/05/17 13:38:54;;;;;;;2.20;0.67;;;16.00;73.10;;;;;;4949493;28;20488;-46
2021/05/17 13:41:26;;;;;;;2.70;0.63;;;16.00;73.70;;;;;;4951472;28;20855;-46
2021/05/17 13:44:18;;;;;;;2.50;0.80;;;15.90;72.40;;;;;;4949786;28;20966;-46
2021/05/17 13:46:46;;;;;;;1.90;0.63;;;15.80;71.60;;;;;;4953285;28;20548;-46
2021/05/17 13:49:16;;;;;;;1.60;0.83;;;15.80;71.90;;;;;;4950635;28;20469;-46
2021/05/17 13:51:43;;;;;;;3.83;0.80;;;15.80;72.50;;;;;;4951624;28;20495;-47